createdAt,value
2018-07-01T00:00:32.780Z,9.20
2018-07-01T00:01:32.775Z,9.20
2018-07-01T00:02:32.786Z,9.30
2018-07-01T00:03:32.776Z,9.30
2018-07-01T00:04:32.779Z,9.10
2018-07-01T00:05:32.770Z,9.20
2018-07-01T00:06:32.770Z,9.40
2018-07-01T00:07:32.764Z,9.30
2018-07-01T00:08:32.771Z,9.10
2018-07-01T00:09:32.769Z,10.40
2018-07-01T00:10:32.769Z,10.20
2018-07-01T00:11:32.765Z,10.00
2018-07-01T00:12:32.759Z,9.50
2018-07-01T00:13:32.757Z,9.20
2018-07-01T00:14:32.756Z,9.50
2018-07-01T00:15:32.754Z,9.70
2018-07-01T00:16:32.758Z,9.40
2018-07-01T00:17:32.756Z,9.40
2018-07-01T00:18:32.752Z,9.30
2018-07-01T00:19:32.748Z,9.30
2018-07-01T00:20:32.754Z,9.20
2018-07-01T00:21:32.748Z,9.70
2018-07-01T00:22:32.750Z,9.00
2018-07-01T00:23:32.747Z,9.00
2018-07-01T00:24:32.743Z,9.10
2018-07-01T00:25:32.739Z,9.20
2018-07-01T00:26:32.737Z,9.30
2018-07-01T00:27:32.737Z,9.40
2018-07-01T00:28:32.741Z,9.40
2018-07-01T00:29:32.735Z,9.50
2018-07-01T00:30:32.737Z,9.30
2018-07-01T00:31:32.734Z,9.30
2018-07-01T00:32:32.728Z,9.50
2018-07-01T00:33:32.726Z,9.30
2018-07-01T00:34:32.729Z,9.10
2018-07-01T00:35:32.731Z,9.60
2018-07-01T00:36:32.720Z,9.10
2018-07-01T00:37:32.717Z,9.30
2018-07-01T00:38:32.716Z,9.80
2018-07-01T00:39:32.715Z,9.30
2018-07-01T00:40:32.718Z,9.40
2018-07-01T00:41:32.713Z,9.30
2018-07-01T00:42:32.716Z,9.30
2018-07-01T00:43:32.710Z,9.40
2018-07-01T00:44:32.703Z,9.60
2018-07-01T00:45:32.703Z,9.50
2018-07-01T00:46:32.701Z,9.30
2018-07-01T00:47:32.697Z,9.50
2018-07-01T00:48:32.703Z,9.70
2018-07-01T00:49:32.699Z,10.40
2018-07-01T00:50:32.693Z,10.10
2018-07-01T00:51:32.689Z,9.30
2018-07-01T00:52:32.696Z,9.60
2018-07-01T00:53:32.690Z,9.50
2018-07-01T00:54:32.687Z,9.50
2018-07-01T00:55:32.688Z,9.60
2018-07-01T00:56:32.681Z,9.50
2018-07-01T00:57:32.678Z,9.70
2018-07-01T00:58:32.674Z,9.70
2018-07-01T00:59:32.671Z,9.40
2018-07-01T01:00:32.679Z,9.80
2018-07-01T01:01:32.673Z,9.60
2018-07-01T01:02:32.670Z,9.50
2018-07-01T01:03:32.669Z,9.80
2018-07-01T01:04:32.664Z,9.80
2018-07-01T01:05:32.659Z,9.30
2018-07-01T01:06:32.660Z,9.50
2018-07-01T01:07:32.658Z,9.60
2018-07-01T01:08:32.651Z,9.70
2018-07-01T01:09:32.648Z,9.40
2018-07-01T01:10:32.648Z,9.40
2018-07-01T01:11:32.643Z,9.30
2018-07-01T01:12:32.647Z,9.30
2018-07-01T01:13:32.644Z,9.30
2018-07-01T01:14:32.640Z,9.50
2018-07-01T01:15:32.642Z,9.70
2018-07-01T01:16:32.631Z,9.30
2018-07-01T01:17:32.628Z,9.50
2018-07-01T01:18:32.631Z,9.30
2018-07-01T01:19:32.623Z,9.60
2018-07-01T01:20:32.634Z,9.40
2018-07-01T01:21:32.625Z,9.30
2018-07-01T01:22:32.619Z,9.30
2018-07-01T01:23:32.613Z,9.30
2018-07-01T01:24:32.620Z,9.30
2018-07-01T01:25:32.615Z,9.30
2018-07-01T01:26:32.614Z,9.50
2018-07-01T01:27:32.610Z,9.50
2018-07-01T01:28:32.601Z,9.70
2018-07-01T01:29:32.599Z,9.50
2018-07-01T01:30:32.598Z,9.60
2018-07-01T01:31:32.595Z,9.30
2018-07-01T01:32:32.597Z,9.30
2018-07-01T01:33:32.594Z,9.50
2018-07-01T01:34:32.591Z,9.50
2018-07-01T01:35:32.591Z,9.70
2018-07-01T01:36:32.585Z,9.70
2018-07-01T01:37:32.579Z,9.70
2018-07-01T01:38:32.581Z,9.10
2018-07-01T01:39:32.578Z,9.30
2018-07-01T01:40:32.573Z,9.50
2018-07-01T01:41:32.571Z,9.70
2018-07-01T01:42:32.566Z,9.40
2018-07-01T01:43:32.564Z,9.60
2018-07-01T01:44:32.565Z,9.30
2018-07-01T01:45:32.562Z,9.20
2018-07-01T01:46:32.562Z,9.80
2018-07-01T01:47:32.557Z,9.60
2018-07-01T01:48:32.556Z,9.80
2018-07-01T01:49:32.554Z,9.80
2018-07-01T01:50:32.545Z,9.70
2018-07-01T01:51:32.540Z,9.80
2018-07-01T01:52:32.545Z,10.00
2018-07-01T01:53:32.540Z,9.80
2018-07-01T01:54:32.533Z,10.00
2018-07-01T01:55:32.530Z,9.90
2018-07-01T01:56:32.532Z,10.40
2018-07-01T01:57:32.531Z,9.90
2018-07-01T01:58:32.530Z,9.90
2018-07-01T01:59:32.524Z,9.90
2018-07-01T02:00:32.516Z,10.10
2018-07-01T02:01:32.514Z,10.20
2018-07-01T02:02:32.514Z,10.10
2018-07-01T02:03:32.510Z,9.70
2018-07-01T02:04:32.511Z,9.70
2018-07-01T02:05:32.508Z,10.20
2018-07-01T02:06:32.507Z,10.00
2018-07-01T02:07:32.500Z,9.80
2018-07-01T02:08:32.495Z,10.00
2018-07-01T02:09:32.491Z,9.70
2018-07-01T02:10:32.492Z,9.50
2018-07-01T02:11:32.489Z,9.90
2018-07-01T02:12:32.484Z,9.70
2018-07-01T02:13:32.479Z,9.40
2018-07-01T02:14:32.479Z,9.40
2018-07-01T02:15:32.474Z,8.70
2018-07-01T02:16:32.478Z,8.90
2018-07-01T02:17:32.472Z,8.80
2018-07-01T02:18:32.470Z,9.00
2018-07-01T02:19:32.469Z,9.10
2018-07-01T02:20:32.458Z,8.90
2018-07-01T02:21:32.459Z,9.30
2018-07-01T02:22:32.452Z,9.00
2018-07-01T02:23:32.452Z,9.00
2018-07-01T02:24:32.453Z,9.00
2018-07-01T02:25:32.447Z,9.00
2018-07-01T02:26:32.441Z,8.80
2018-07-01T02:27:32.437Z,9.10
2018-07-01T02:28:32.440Z,8.80
2018-07-01T02:29:32.439Z,9.20
2018-07-01T02:30:32.435Z,9.50
2018-07-01T02:31:32.434Z,9.60
2018-07-01T02:32:32.424Z,9.20
2018-07-01T02:33:32.422Z,9.70
2018-07-01T02:34:32.417Z,9.30
2018-07-01T02:35:32.633Z,9.30
2018-07-01T02:36:32.415Z,9.00
2018-07-01T02:37:32.412Z,9.90
2018-07-01T02:38:32.411Z,9.50
2018-07-01T02:39:32.406Z,9.50
2018-07-01T02:40:32.398Z,9.90
2018-07-01T02:41:32.397Z,9.70
2018-07-01T02:42:32.402Z,9.60
2018-07-01T02:43:32.393Z,9.50
2018-07-01T02:44:32.387Z,9.70
2018-07-01T02:45:32.385Z,9.50
2018-07-01T02:46:32.380Z,9.40
2018-07-01T02:47:32.378Z,9.30
2018-07-01T02:48:32.385Z,9.60
2018-07-01T02:49:32.376Z,9.40
2018-07-01T02:50:32.374Z,9.70
2018-07-01T02:51:32.378Z,9.90
2018-07-01T02:52:32.365Z,9.80
2018-07-01T02:53:32.359Z,10.00
2018-07-01T02:54:32.359Z,9.80
2018-07-01T02:55:32.403Z,9.80
2018-07-01T02:56:32.360Z,9.90
2018-07-01T02:57:32.351Z,9.90
2018-07-01T02:58:32.344Z,9.90
2018-07-01T02:59:32.340Z,9.30
2018-07-01T03:00:32.342Z,9.80
2018-07-01T03:01:32.349Z,9.90
2018-07-01T03:02:32.335Z,10.20
2018-07-01T03:03:32.331Z,9.90
2018-07-01T03:04:32.323Z,9.80
2018-07-01T03:05:32.320Z,9.90
2018-07-01T03:06:32.316Z,9.70
2018-07-01T03:07:32.314Z,9.90
2018-07-01T03:08:32.314Z,10.00
2018-07-01T03:09:32.311Z,10.20
2018-07-01T03:10:32.308Z,9.90
2018-07-01T03:11:32.305Z,10.10
2018-07-01T03:12:32.296Z,10.20
2018-07-01T03:13:32.294Z,10.40
2018-07-01T03:14:32.296Z,10.20
2018-07-01T03:15:32.294Z,10.10
2018-07-01T03:16:32.282Z,10.30
2018-07-01T03:17:32.280Z,10.10
2018-07-01T03:18:32.276Z,10.10
2018-07-01T03:19:32.273Z,10.30
2018-07-01T03:20:32.274Z,10.60
2018-07-01T03:21:32.272Z,9.90
2018-07-01T03:22:32.266Z,9.90
2018-07-01T03:23:32.268Z,9.90
2018-07-01T03:24:32.254Z,10.00
2018-07-01T03:25:32.252Z,9.50
2018-07-01T03:26:32.249Z,9.90
2018-07-01T03:27:32.244Z,10.20
2018-07-01T03:28:32.247Z,9.90
2018-07-01T03:29:32.244Z,10.10
2018-07-01T03:30:32.235Z,9.50
2018-07-01T03:31:32.230Z,9.50
2018-07-01T03:32:32.233Z,9.40
2018-07-01T03:33:32.228Z,9.30
2018-07-01T03:34:32.225Z,9.30
2018-07-01T03:35:32.220Z,9.30
2018-07-01T03:36:32.212Z,9.60
2018-07-01T03:37:32.210Z,9.50
2018-07-01T03:38:32.213Z,9.30
2018-07-01T03:39:32.208Z,9.40
2018-07-01T03:40:32.198Z,9.20
2018-07-01T03:41:32.196Z,9.90
2018-07-01T03:42:32.193Z,9.50
2018-07-01T03:43:32.188Z,9.00
2018-07-01T03:44:32.190Z,8.80
2018-07-01T03:45:32.188Z,8.90
2018-07-01T03:46:32.178Z,9.50
2018-07-01T03:47:32.176Z,9.10
2018-07-01T03:48:32.176Z,9.30
2018-07-01T03:49:32.174Z,9.20
2018-07-01T03:50:32.169Z,9.50
2018-07-01T03:51:32.163Z,9.20
2018-07-01T03:52:32.157Z,9.20
2018-07-01T03:53:32.153Z,9.30
2018-07-01T03:54:32.150Z,9.60
2018-07-01T03:55:32.151Z,9.70
2018-07-01T03:56:32.147Z,9.40
2018-07-01T03:57:32.146Z,9.80
2018-07-01T03:58:32.142Z,9.70
2018-07-01T03:59:32.138Z,9.80
2018-07-01T04:00:32.199Z,9.40
2018-07-01T04:01:32.125Z,9.60
2018-07-01T04:02:32.128Z,9.50
2018-07-01T04:03:32.124Z,9.70
2018-07-01T04:04:32.116Z,9.60
2018-07-01T04:05:32.111Z,9.90
2018-07-01T04:06:32.111Z,9.80
2018-07-01T04:07:32.103Z,9.40
2018-07-01T04:08:32.104Z,9.50
2018-07-01T04:09:32.102Z,9.60
2018-07-01T04:10:32.102Z,9.50
2018-07-01T04:11:32.094Z,9.60
2018-07-01T04:12:32.087Z,10.30
2018-07-01T04:13:32.084Z,9.60
2018-07-01T04:14:32.080Z,9.60
2018-07-01T04:15:32.076Z,9.60
2018-07-01T04:16:32.078Z,9.50
2018-07-01T04:17:32.074Z,9.60
2018-07-01T04:18:32.069Z,9.50
2018-07-01T04:19:32.064Z,9.50
2018-07-01T04:20:32.065Z,9.60
2018-07-01T04:21:32.062Z,9.70
2018-07-01T04:22:32.057Z,9.70
2018-07-01T04:23:32.053Z,9.40
2018-07-01T04:24:32.046Z,9.70
2018-07-01T04:25:32.043Z,9.90
2018-07-01T04:26:32.040Z,9.70
2018-07-01T04:27:32.036Z,9.60
2018-07-01T04:28:32.037Z,9.50
2018-07-01T04:29:32.035Z,10.00
2018-07-01T04:30:32.031Z,9.70
2018-07-01T04:31:32.028Z,9.70
2018-07-01T04:32:32.019Z,9.40
2018-07-01T04:33:32.016Z,9.30
2018-07-01T04:34:32.018Z,9.50
2018-07-01T04:35:32.015Z,8.90
2018-07-01T04:36:32.006Z,9.30
2018-07-01T04:37:32.004Z,9.10
2018-07-01T04:38:32.000Z,8.80
2018-07-01T04:39:31.999Z,8.80
2018-07-01T04:40:31.998Z,8.50
2018-07-01T04:41:31.995Z,8.60
2018-07-01T04:42:31.996Z,8.60
2018-07-01T04:43:31.990Z,8.50
2018-07-01T04:44:31.981Z,8.90
2018-07-01T04:45:31.978Z,8.80
2018-07-01T04:46:31.977Z,8.70
2018-07-01T04:47:31.976Z,8.70
2018-07-01T04:48:31.976Z,8.70
2018-07-01T04:49:31.971Z,8.70
2018-07-01T04:50:31.963Z,8.90
2018-07-01T04:51:31.959Z,8.60
2018-07-01T04:52:31.961Z,8.70
2018-07-01T04:53:31.958Z,9.60
2018-07-01T04:54:31.957Z,9.00
2018-07-01T04:55:31.953Z,8.90
2018-07-01T04:56:31.945Z,8.90
2018-07-01T04:57:31.943Z,9.00
2018-07-01T04:58:31.940Z,8.50
2018-07-01T04:59:31.937Z,8.60
2018-07-01T05:00:31.939Z,8.80
2018-07-01T05:01:31.937Z,8.80
2018-07-01T05:02:31.951Z,8.70
2018-07-01T05:03:31.929Z,8.60
2018-07-01T05:04:31.924Z,8.60
2018-07-01T05:05:31.921Z,8.40
2018-07-01T05:06:31.924Z,8.40
2018-07-01T05:07:31.922Z,8.60
2018-07-01T05:08:31.916Z,8.50
2018-07-01T05:09:31.915Z,8.60
2018-07-01T05:10:31.915Z,8.10
2018-07-01T05:11:31.914Z,8.10
2018-07-01T05:12:31.918Z,7.20
2018-07-01T05:13:31.919Z,7.90
2018-07-01T05:14:31.918Z,7.70
2018-07-01T05:15:31.918Z,7.90
2018-07-01T05:16:31.915Z,8.10
2018-07-01T05:17:31.916Z,8.10
2018-07-01T05:18:31.917Z,8.10
2018-07-01T05:19:31.918Z,7.90
2018-07-01T05:20:31.925Z,8.00
2018-07-01T05:21:31.927Z,8.20
2018-07-01T05:22:31.925Z,8.20
2018-07-01T05:23:31.928Z,8.20
2018-07-01T05:24:31.935Z,8.30
2018-07-01T05:25:31.938Z,8.30
2018-07-01T05:26:31.942Z,8.50
2018-07-01T05:27:31.988Z,8.50
2018-07-01T05:28:31.944Z,8.60
2018-07-01T05:29:31.947Z,8.40
2018-07-01T05:30:31.952Z,8.70
2018-07-01T05:31:31.956Z,8.90
2018-07-01T05:32:31.966Z,8.50
2018-07-01T05:33:31.970Z,8.80
2018-07-01T05:34:31.975Z,8.60
2018-07-01T05:35:31.977Z,8.80
2018-07-01T05:36:31.978Z,8.90
2018-07-01T05:37:31.983Z,9.00
2018-07-01T05:38:31.993Z,9.00
2018-07-01T05:39:31.997Z,8.90
2018-07-01T05:40:31.998Z,8.80
2018-07-01T05:41:32.004Z,8.50
2018-07-01T05:42:32.010Z,8.60
2018-07-01T05:43:32.015Z,8.70
2018-07-01T05:44:32.026Z,8.40
2018-07-01T05:45:32.031Z,8.70
2018-07-01T05:46:32.039Z,7.90
2018-07-01T05:47:32.041Z,7.70
2018-07-01T05:48:32.042Z,8.00
2018-07-01T05:49:32.049Z,8.30
2018-07-01T05:50:32.055Z,8.90
2018-07-01T05:51:32.062Z,10.40
2018-07-01T05:52:32.073Z,19.40
2018-07-01T05:53:32.079Z,31.60
2018-07-01T05:54:32.083Z,133.60
2018-07-01T05:55:32.089Z,163.10
2018-07-01T05:56:32.098Z,369.10
2018-07-01T05:57:32.105Z,590.50
2018-07-01T05:58:32.111Z,910.10
2018-07-01T05:59:32.117Z,706.60
2018-07-01T06:00:32.120Z,345.50
2018-07-01T06:01:32.127Z,999.90
2018-07-01T06:02:32.137Z,177.70
2018-07-01T06:03:32.139Z,999.90
2018-07-01T06:04:32.151Z,999.90
2018-07-01T06:05:32.159Z,56.50
2018-07-01T06:06:32.167Z,23.90
2018-07-01T06:07:32.173Z,999.90
2018-07-01T06:08:32.209Z,999.90
2018-07-01T06:09:32.184Z,999.90
2018-07-01T06:10:32.195Z,999.90
2018-07-01T06:11:32.201Z,999.90
2018-07-01T06:12:32.204Z,999.90
2018-07-01T06:13:32.212Z,999.90
2018-07-01T06:14:32.218Z,999.90
2018-07-01T06:15:32.226Z,999.90
2018-07-01T06:16:32.288Z,442.50
2018-07-01T06:17:32.256Z,427.70
2018-07-01T06:18:32.254Z,999.90
2018-07-01T06:19:32.261Z,569.20
2018-07-01T06:20:32.263Z,810.60
2018-07-01T06:21:32.270Z,827.00
2018-07-01T06:22:32.278Z,999.90
2018-07-01T06:23:32.290Z,999.90
2018-07-01T06:24:32.304Z,999.90
2018-07-01T06:25:32.308Z,999.90
2018-07-01T06:26:32.313Z,999.90
2018-07-01T06:27:32.317Z,999.90
2018-07-01T06:28:32.331Z,999.90
2018-07-01T06:29:32.339Z,999.90
2018-07-01T06:30:32.346Z,999.90
2018-07-01T06:31:32.354Z,999.90
2018-07-01T06:32:32.358Z,999.90
2018-07-01T06:33:32.366Z,999.90
2018-07-01T06:34:32.375Z,999.90
2018-07-01T06:35:32.383Z,999.90
2018-07-01T06:36:32.396Z,999.90
2018-07-01T06:37:32.405Z,999.90
2018-07-01T06:38:32.414Z,999.90
2018-07-01T06:39:32.421Z,999.90
2018-07-01T06:40:32.427Z,999.90
2018-07-01T06:41:32.436Z,999.90
2018-07-01T06:42:32.449Z,999.90
2018-07-01T06:43:32.458Z,999.90
2018-07-01T06:44:32.461Z,999.90
2018-07-01T06:45:32.470Z,855.00
2018-07-01T06:46:32.480Z,900.40
2018-07-01T06:47:32.490Z,900.60
2018-07-01T06:48:32.500Z,696.20
2018-07-01T06:49:32.538Z,829.60
2018-07-01T06:50:32.521Z,339.90
2018-07-01T06:51:32.529Z,296.50
2018-07-01T06:52:32.535Z,396.20
2018-07-01T06:53:32.544Z,358.10
2018-07-01T06:54:32.553Z,242.20
2018-07-01T06:55:32.562Z,163.10
2018-07-01T06:56:32.667Z,155.50
2018-07-01T06:57:32.588Z,88.60
2018-07-01T06:58:32.592Z,283.60
2018-07-01T06:59:32.602Z,281.20
2018-07-01T07:00:32.616Z,91.30
2018-07-01T07:01:32.626Z,143.80
2018-07-01T07:02:32.711Z,124.20
2018-07-01T07:03:32.647Z,129.10
2018-07-01T07:04:32.650Z,68.80
2018-07-01T07:05:32.663Z,385.30
2018-07-01T07:06:32.672Z,282.20
2018-07-01T07:07:32.681Z,256.70
2018-07-01T07:08:32.698Z,242.80
2018-07-01T07:09:32.707Z,375.40
2018-07-01T07:10:32.717Z,241.20
2018-07-01T07:11:32.726Z,267.70
2018-07-01T07:12:32.731Z,216.00
2018-07-01T07:13:32.742Z,174.00
2018-07-01T07:14:32.760Z,106.00
2018-07-01T07:15:32.766Z,107.50
2018-07-01T07:16:32.773Z,287.50
2018-07-01T07:17:32.785Z,168.20
2018-07-01T07:18:32.795Z,162.00
2018-07-01T07:19:32.805Z,285.80
2018-07-01T07:20:32.824Z,140.40
2018-07-01T07:21:32.834Z,97.30
2018-07-01T07:22:32.847Z,151.10
2018-07-01T07:23:32.857Z,159.50
2018-07-01T07:24:32.927Z,228.30
2018-07-01T07:25:32.877Z,222.50
2018-07-01T07:26:32.887Z,93.60
2018-07-01T07:27:32.898Z,59.90
2018-07-01T07:28:32.914Z,56.90
2018-07-01T07:29:32.927Z,62.20
2018-07-01T07:30:32.934Z,56.80
2018-07-01T07:31:32.946Z,57.00
2018-07-01T07:32:32.962Z,50.00
2018-07-01T07:33:32.976Z,248.80
2018-07-01T07:34:32.987Z,108.20
2018-07-01T07:35:32.999Z,56.90
2018-07-01T07:36:33.016Z,67.10
2018-07-01T07:37:33.019Z,53.50
2018-07-01T07:38:33.032Z,83.80
2018-07-01T07:39:33.044Z,98.20
2018-07-01T07:40:33.061Z,50.30
2018-07-01T07:41:33.073Z,37.40
2018-07-01T07:42:33.085Z,77.10
2018-07-01T07:43:33.100Z,93.90
2018-07-01T07:44:33.104Z,119.80
2018-07-01T07:45:33.122Z,780.30
2018-07-01T07:46:33.136Z,207.10
2018-07-01T07:47:33.149Z,158.50
2018-07-01T07:48:33.157Z,87.40
2018-07-01T07:49:33.171Z,40.00
2018-07-01T07:50:33.184Z,215.60
2018-07-01T07:51:33.198Z,148.30
2018-07-01T07:52:33.215Z,138.00
2018-07-01T07:53:33.229Z,61.20
2018-07-01T07:54:33.242Z,102.60
2018-07-01T07:55:33.255Z,114.90
2018-07-01T07:56:33.263Z,126.40
2018-07-01T07:57:33.275Z,169.00
2018-07-01T07:58:33.290Z,134.20
2018-07-01T07:59:33.305Z,103.30
2018-07-01T08:00:33.320Z,91.70
2018-07-01T08:01:33.332Z,28.10
2018-07-01T08:02:33.341Z,201.70
2018-07-01T08:03:33.352Z,45.10
2018-07-01T08:04:33.370Z,19.60
2018-07-01T08:05:33.383Z,28.10
2018-07-01T08:06:33.398Z,41.40
2018-07-01T08:07:33.409Z,59.00
2018-07-01T08:08:33.419Z,80.40
2018-07-01T08:09:33.432Z,131.20
2018-07-01T08:10:33.442Z,227.10
2018-07-01T08:11:33.455Z,281.90
2018-07-01T08:12:33.473Z,300.50
2018-07-01T08:13:33.488Z,308.80
2018-07-01T08:14:33.498Z,337.10
2018-07-01T08:15:33.510Z,84.00
2018-07-01T08:16:33.519Z,64.80
2018-07-01T08:17:33.532Z,83.50
2018-07-01T08:18:33.550Z,43.50
2018-07-01T08:19:33.562Z,48.80
2018-07-01T08:20:33.571Z,65.60
2018-07-01T08:21:33.585Z,66.90
2018-07-01T08:22:33.598Z,96.90
2018-07-01T08:23:33.611Z,181.80
2018-07-01T08:24:33.629Z,225.50
2018-07-01T08:25:33.643Z,217.70
2018-07-01T08:26:33.656Z,229.30
2018-07-01T08:27:33.669Z,221.80
2018-07-01T08:28:33.678Z,216.40
2018-07-01T08:29:33.693Z,217.70
2018-07-01T08:30:33.706Z,206.90
2018-07-01T08:31:33.718Z,198.50
2018-07-01T08:32:33.736Z,188.80
2018-07-01T08:33:33.750Z,138.90
2018-07-01T08:34:33.766Z,120.40
2018-07-01T08:35:33.772Z,81.60
2018-07-01T08:36:33.793Z,72.70
2018-07-01T08:37:33.803Z,67.20
2018-07-01T08:38:33.822Z,79.50
2018-07-01T08:39:33.831Z,99.70
2018-07-01T08:40:33.839Z,115.20
2018-07-01T08:41:33.852Z,99.60
2018-07-01T08:42:33.867Z,84.80
2018-07-01T08:43:33.880Z,77.20
2018-07-01T08:44:33.897Z,85.40
2018-07-01T08:45:33.909Z,90.90
2018-07-01T08:46:33.921Z,108.50
2018-07-01T08:47:33.933Z,99.30
2018-07-01T08:48:33.945Z,119.20
2018-07-01T08:49:33.956Z,120.90
2018-07-01T08:50:33.975Z,119.10
2018-07-01T08:51:33.986Z,141.40
2018-07-01T08:52:34.008Z,164.90
2018-07-01T08:53:34.011Z,155.30
2018-07-01T08:54:34.026Z,208.00
2018-07-01T08:55:34.037Z,403.80
2018-07-01T08:56:34.057Z,184.70
2018-07-01T08:57:34.070Z,244.20
2018-07-01T08:58:34.084Z,428.10
2018-07-01T08:59:34.106Z,186.90
2018-07-01T09:00:34.109Z,126.90
2018-07-01T09:01:34.123Z,142.10
2018-07-01T09:02:34.136Z,147.40
2018-07-01T09:03:34.150Z,249.60
2018-07-01T09:04:34.171Z,137.70
2018-07-01T09:05:34.186Z,79.60
2018-07-01T09:06:34.194Z,232.70
2018-07-01T09:07:34.208Z,140.80
2018-07-01T09:08:34.307Z,61.60
2018-07-01T09:09:34.245Z,51.00
2018-07-01T09:10:34.264Z,83.20
2018-07-01T09:11:34.274Z,79.10
2018-07-01T09:12:34.284Z,72.50
2018-07-01T09:13:34.301Z,127.00
2018-07-01T09:14:34.314Z,133.30
2018-07-01T09:15:34.334Z,181.30
2018-07-01T09:16:34.349Z,84.00
2018-07-01T09:17:34.364Z,70.70
2018-07-01T09:18:34.380Z,46.80
2018-07-01T09:19:34.394Z,64.60
2018-07-01T09:20:34.405Z,116.50
2018-07-01T09:21:34.421Z,119.70
2018-07-01T09:22:34.442Z,64.10
2018-07-01T09:23:34.497Z,148.60
2018-07-01T09:24:34.465Z,59.70
2018-07-01T09:25:34.481Z,45.20
2018-07-01T09:26:34.496Z,50.50
2018-07-01T09:27:34.512Z,49.90
2018-07-01T09:28:34.531Z,40.90
2018-07-01T09:29:34.545Z,32.60
2018-07-01T09:30:34.562Z,30.20
2018-07-01T09:31:34.576Z,36.30
2018-07-01T09:32:34.588Z,47.60
2018-07-01T09:33:34.603Z,52.50
2018-07-01T09:34:34.676Z,65.30
2018-07-01T09:35:34.633Z,114.00
2018-07-01T09:36:34.655Z,49.10
2018-07-01T09:37:34.671Z,122.20
2018-07-01T09:38:34.684Z,123.70
2018-07-01T09:39:34.698Z,92.00
2018-07-01T09:40:34.717Z,57.00
2018-07-01T09:41:34.735Z,45.80
2018-07-01T09:42:34.749Z,42.60
2018-07-01T09:43:34.764Z,56.50
2018-07-01T09:44:34.776Z,82.50
2018-07-01T09:45:34.791Z,46.30
2018-07-01T09:46:34.812Z,36.70
2018-07-01T09:47:34.822Z,27.50
2018-07-01T09:48:34.843Z,30.50
2018-07-01T09:49:34.857Z,17.80
2018-07-01T09:50:34.891Z,45.50
2018-07-01T09:51:34.889Z,33.30
2018-07-01T09:52:34.902Z,113.10
2018-07-01T09:53:34.916Z,60.20
2018-07-01T09:54:34.936Z,60.90
2018-07-01T09:55:34.950Z,41.10
2018-07-01T09:56:34.961Z,31.50
2018-07-01T09:57:34.976Z,78.00
2018-07-01T09:58:34.992Z,44.50
2018-07-01T09:59:35.007Z,27.40
2018-07-01T10:00:35.030Z,62.10
2018-07-01T10:01:35.044Z,32.70
2018-07-01T10:02:35.059Z,45.70
2018-07-01T10:03:35.074Z,38.30
2018-07-01T10:04:35.084Z,61.70
2018-07-01T10:05:35.099Z,40.90
2018-07-01T10:06:35.114Z,44.20
2018-07-01T10:07:35.129Z,61.80
2018-07-01T10:08:35.148Z,50.70
2018-07-01T10:09:35.216Z,42.30
2018-07-01T10:10:35.175Z,45.40
2018-07-01T10:11:35.190Z,44.90
2018-07-01T10:12:35.211Z,44.30
2018-07-01T10:13:35.225Z,41.10
2018-07-01T10:14:35.242Z,42.20
2018-07-01T10:15:35.255Z,41.40
2018-07-01T10:16:35.268Z,84.70
2018-07-01T10:17:35.283Z,67.50
2018-07-01T10:18:35.300Z,49.50
2018-07-01T10:19:35.313Z,42.30
2018-07-01T10:20:35.334Z,51.00
2018-07-01T10:21:35.353Z,44.30
2018-07-01T10:22:35.364Z,48.20
2018-07-01T10:23:35.380Z,33.90
2018-07-01T10:24:35.390Z,29.00
2018-07-01T10:25:35.406Z,33.60
2018-07-01T10:26:35.449Z,41.20
2018-07-01T10:27:35.445Z,44.10
2018-07-01T10:28:35.452Z,42.20
2018-07-01T10:29:35.468Z,43.50
2018-07-01T10:30:35.486Z,71.90
2018-07-01T10:31:35.498Z,46.80
2018-07-01T10:32:35.519Z,52.30
2018-07-01T10:33:35.585Z,46.10
2018-07-01T10:34:35.552Z,31.70
2018-07-01T10:35:35.565Z,42.70
2018-07-01T10:36:35.575Z,51.10
2018-07-01T10:37:35.591Z,43.80
2018-07-01T10:38:35.607Z,41.00
2018-07-01T10:39:35.622Z,44.30
2018-07-01T10:40:35.642Z,44.70
2018-07-01T10:41:35.658Z,51.20
2018-07-01T10:42:35.669Z,40.60
2018-07-01T10:43:35.684Z,39.90
2018-07-01T10:44:35.707Z,93.60
2018-07-01T10:45:35.720Z,46.00
2018-07-01T10:46:35.740Z,101.20
2018-07-01T10:47:35.751Z,64.70
2018-07-01T10:48:35.765Z,56.90
2018-07-01T10:49:35.779Z,58.60
2018-07-01T10:50:35.793Z,54.20
2018-07-01T10:51:35.866Z,80.80
2018-07-01T10:52:35.828Z,76.10
2018-07-01T10:53:35.845Z,47.50
2018-07-01T10:54:35.859Z,47.30
2018-07-01T10:55:35.873Z,40.10
2018-07-01T10:56:35.885Z,68.90
2018-07-01T10:57:35.930Z,52.90
2018-07-01T10:58:35.923Z,34.30
2018-07-01T10:59:35.935Z,107.10
2018-07-01T11:00:35.948Z,89.70
2018-07-01T11:01:35.962Z,93.40
2018-07-01T11:02:35.979Z,208.90
2018-07-01T11:03:35.994Z,118.70
2018-07-01T11:04:36.014Z,102.70
2018-07-01T11:05:36.029Z,94.80
2018-07-01T11:06:36.043Z,93.50
2018-07-01T11:07:36.058Z,95.70
2018-07-01T11:08:36.068Z,93.40
2018-07-01T11:09:36.083Z,68.20
2018-07-01T11:10:36.100Z,87.70
2018-07-01T11:11:36.118Z,74.20
2018-07-01T11:12:36.131Z,97.80
2018-07-01T11:13:36.151Z,87.30
2018-07-01T11:14:36.156Z,87.20
2018-07-01T11:15:36.170Z,66.30
2018-07-01T11:16:36.191Z,77.20
2018-07-01T11:17:36.205Z,99.00
2018-07-01T11:18:36.223Z,91.10
2018-07-01T11:19:36.232Z,95.00
2018-07-01T11:20:36.245Z,87.10
2018-07-01T11:21:36.258Z,75.00
2018-07-01T11:22:36.272Z,87.20
2018-07-01T11:23:36.286Z,87.10
2018-07-01T11:24:36.307Z,115.90
2018-07-01T11:25:36.320Z,52.10
2018-07-01T11:26:36.416Z,41.50
2018-07-01T11:27:36.514Z,18.90
2018-07-01T11:28:36.354Z,14.10
2018-07-01T11:29:36.367Z,11.90
2018-07-01T11:30:36.385Z,9.20
2018-07-01T11:31:36.394Z,8.80
2018-07-01T11:32:36.403Z,9.60
2018-07-01T11:33:36.412Z,9.50
2018-07-01T11:34:36.425Z,10.50
2018-07-01T11:35:36.432Z,11.80
2018-07-01T11:36:36.447Z,14.50
2018-07-01T11:37:36.457Z,15.00
2018-07-01T11:38:36.465Z,10.80
2018-07-01T11:39:36.472Z,10.30
2018-07-01T11:40:36.477Z,11.10
2018-07-01T11:41:36.485Z,18.80
2018-07-01T11:42:36.554Z,11.00
2018-07-01T11:43:36.500Z,12.10
2018-07-01T11:44:36.580Z,10.70
2018-07-01T11:45:36.521Z,10.60
2018-07-01T11:46:36.522Z,10.80
2018-07-01T11:47:36.530Z,13.70
2018-07-01T11:48:36.541Z,10.50
2018-07-01T11:49:36.547Z,9.90
2018-07-01T11:50:36.553Z,9.60
2018-07-01T11:51:36.559Z,10.20
2018-07-01T11:52:36.561Z,9.60
2018-07-01T11:53:36.567Z,11.40
2018-07-01T11:54:36.572Z,17.30
2018-07-01T11:55:36.581Z,11.50
2018-07-01T11:56:36.588Z,14.00
2018-07-01T11:57:36.594Z,15.10
2018-07-01T11:58:36.601Z,12.60
2018-07-01T11:59:36.605Z,14.70
2018-07-01T12:00:36.607Z,13.50
2018-07-01T12:01:36.611Z,12.10
2018-07-01T12:02:36.623Z,10.80
2018-07-01T12:03:36.626Z,11.80
2018-07-01T12:04:36.629Z,13.90
2018-07-01T12:05:36.693Z,13.20
2018-07-01T12:06:36.640Z,14.60
2018-07-01T12:07:36.644Z,11.60
2018-07-01T12:08:36.650Z,13.10
2018-07-01T12:09:36.655Z,14.30
2018-07-01T12:10:36.656Z,43.60
2018-07-01T12:11:36.660Z,17.70
2018-07-01T12:12:36.671Z,14.70
2018-07-01T12:13:36.675Z,15.90
2018-07-01T12:14:36.680Z,27.00
2018-07-01T12:15:36.683Z,20.20
2018-07-01T12:16:36.684Z,27.80
2018-07-01T12:17:36.688Z,18.60
2018-07-01T12:18:36.698Z,28.40
2018-07-01T12:19:36.732Z,19.30
2018-07-01T12:20:36.721Z,16.40
2018-07-01T12:21:36.706Z,33.60
2018-07-01T12:22:36.711Z,14.30
2018-07-01T12:23:36.744Z,17.30
2018-07-01T12:24:36.724Z,20.20
2018-07-01T12:25:36.728Z,18.80
2018-07-01T12:26:36.733Z,24.00
2018-07-01T12:27:36.736Z,21.50
2018-07-01T12:28:36.736Z,16.40
2018-07-01T12:29:36.740Z,18.20
2018-07-01T12:30:36.745Z,19.70
2018-07-01T12:31:36.751Z,16.70
2018-07-01T12:32:36.757Z,25.30
2018-07-01T12:33:36.761Z,20.90
2018-07-01T12:34:36.809Z,14.20
2018-07-01T12:35:36.765Z,20.10
2018-07-01T12:36:36.779Z,18.60
2018-07-01T12:37:36.777Z,18.40
2018-07-01T12:38:36.783Z,17.40
2018-07-01T12:39:36.787Z,26.60
2018-07-01T12:40:36.788Z,21.10
2018-07-01T12:41:36.790Z,27.50
2018-07-01T12:42:36.794Z,23.20
2018-07-01T12:43:36.797Z,20.90
2018-07-01T12:44:36.807Z,19.60
2018-07-01T12:45:36.810Z,24.00
2018-07-01T12:46:36.818Z,23.20
2018-07-01T12:47:36.828Z,20.10
2018-07-01T12:48:36.819Z,18.30
2018-07-01T12:49:36.822Z,23.70
2018-07-01T12:50:36.831Z,118.20
2018-07-01T12:51:36.833Z,30.90
2018-07-01T12:52:36.833Z,50.20
2018-07-01T12:53:36.837Z,29.90
2018-07-01T12:54:36.842Z,42.40
2018-07-01T12:55:36.846Z,31.60
2018-07-01T12:56:36.949Z,32.60
2018-07-01T12:57:36.858Z,52.00
2018-07-01T12:58:36.864Z,41.80